sensor_id;sensor_type;location;lat;lon;timestamp;temperature;humidity
55711;DHT22;41612;51.994;5.880;2023-03-14T00:02:22;12.70;75.50
55711;DHT22;41612;51.994;5.880;2023-03-14T00:04:47;12.70;75.10
55711;DHT22;41612;51.994;5.880;2023-03-14T00:07:14;12.70;75.30
55711;DHT22;41612;51.994;5.880;2023-03-14T00:09:39;12.70;74.90
55711;DHT22;41612;51.994;5.880;2023-03-14T00:12:05;12.70;75.60
55711;DHT22;41612;51.994;5.880;2023-03-14T00:14:32;12.70;75.60
55711;DHT22;41612;51.994;5.880;2023-03-14T00:16:58;12.70;74.60
55711;DHT22;41612;51.994;5.880;2023-03-14T00:19:24;12.70;76.00
55711;DHT22;41612;51.994;5.880;2023-03-14T00:21:50;12.60;76.50
55711;DHT22;41612;51.994;5.880;2023-03-14T00:24:15;12.30;78.50
55711;DHT22;41612;51.994;5.880;2023-03-14T00:26:41;12.10;81.00
55711;DHT22;41612;51.994;5.880;2023-03-14T00:29:06;11.70;83.00
55711;DHT22;41612;51.994;5.880;2023-03-14T00:31:32;11.40;83.80
55711;DHT22;41612;51.994;5.880;2023-03-14T00:33:58;11.30;84.70
55711;DHT22;41612;51.994;5.880;2023-03-14T00:36:24;11.20;85.00
55711;DHT22;41612;51.994;5.880;2023-03-14T00:38:51;11.20;85.10
55711;DHT22;41612;51.994;5.880;2023-03-14T00:41:21;11.00;85.10
55711;DHT22;41612;51.994;5.880;2023-03-14T00:43:48;11.00;85.10
55711;DHT22;41612;51.994;5.880;2023-03-14T00:46:14;10.80;85.30
55711;DHT22;41612;51.994;5.880;2023-03-14T00:48:44;10.70;85.20
55711;DHT22;41612;51.994;5.880;2023-03-14T00:51:10;10.60;85.40
55711;DHT22;41612;51.994;5.880;2023-03-14T00:53:40;10.60;85.10
55711;DHT22;41612;51.994;5.880;2023-03-14T00:56:09;10.60;85.10
55711;DHT22;41612;51.994;5.880;2023-03-14T00:58:35;10.60;85.10
55711;DHT22;41612;51.994;5.880;2023-03-14T01:01:09;10.60;85.10
55711;DHT22;41612;51.994;5.880;2023-03-14T01:03:36;10.50;84.70
55711;DHT22;41612;51.994;5.880;2023-03-14T01:06:12;10.50;84.60
55711;DHT22;41612;51.994;5.880;2023-03-14T01:08:38;10.50;84.60
55711;DHT22;41612;51.994;5.880;2023-03-14T01:11:13;10.50;84.50
55711;DHT22;41612;51.994;5.880;2023-03-14T01:13:39;10.50;84.50
55711;DHT22;41612;51.994;5.880;2023-03-14T01:16:07;10.50;84.20
55711;DHT22;41612;51.994;5.880;2023-03-14T01:18:37;10.60;84.50
55711;DHT22;41612;51.994;5.880;2023-03-14T01:21:11;10.60;83.80
55711;DHT22;41612;51.994;5.880;2023-03-14T01:23:37;10.60;83.70
55711;DHT22;41612;51.994;5.880;2023-03-14T01:26:03;10.70;84.20
55711;DHT22;41612;51.994;5.880;2023-03-14T01:28:29;10.70;83.70
55711;DHT22;41612;51.994;5.880;2023-03-14T01:30:54;10.70;83.60
55711;DHT22;41612;51.994;5.880;2023-03-14T01:33:20;10.70;82.90
55711;DHT22;41612;51.994;5.880;2023-03-14T01:35:45;10.70;82.80
55711;DHT22;41612;51.994;5.880;2023-03-14T01:38:14;10.70;82.50
55711;DHT22;41612;51.994;5.880;2023-03-14T01:40:44;10.70;83.20
55711;DHT22;41612;51.994;5.880;2023-03-14T01:43:16;10.70;83.60
55711;DHT22;41612;51.994;5.880;2023-03-14T01:50:59;10.40;84.00
55711;DHT22;41612;51.994;5.880;2023-03-14T01:53:26;10.30;84.80
55711;DHT22;41612;51.994;5.880;2023-03-14T01:55:53;10.20;85.40
55711;DHT22;41612;51.994;5.880;2023-03-14T01:58:23;10.30;85.70
55711;DHT22;41612;51.994;5.880;2023-03-14T02:00:51;10.20;85.80
55711;DHT22;41612;51.994;5.880;2023-03-14T02:03:17;10.20;86.20
55711;DHT22;41612;51.994;5.880;2023-03-14T02:05:44;10.10;86.30
55711;DHT22;41612;51.994;5.880;2023-03-14T02:08:20;10.00;86.80
55711;DHT22;41612;51.994;5.880;2023-03-14T02:10:52;9.90;87.10
55711;DHT22;41612;51.994;5.880;2023-03-14T02:13:38;9.90;87.60
55711;DHT22;41612;51.994;5.880;2023-03-14T02:16:22;9.80;87.80
55711;DHT22;41612;51.994;5.880;2023-03-14T02:18:59;9.80;88.00
55711;DHT22;41612;51.994;5.880;2023-03-14T02:21:57;9.70;88.30
55711;DHT22;41612;51.994;5.880;2023-03-14T02:24:38;9.70;88.40
55711;DHT22;41612;51.994;5.880;2023-03-14T02:27:13;9.70;88.60
55711;DHT22;41612;51.994;5.880;2023-03-14T02:32:16;9.70;88.60
55711;DHT22;41612;51.994;5.880;2023-03-14T02:34:45;9.70;88.80
55711;DHT22;41612;51.994;5.880;2023-03-14T02:37:13;9.70;88.90
55711;DHT22;41612;51.994;5.880;2023-03-14T02:39:44;9.70;88.90
55711;DHT22;41612;51.994;5.880;2023-03-14T02:42:12;9.70;88.90
55711;DHT22;41612;51.994;5.880;2023-03-14T02:47:36;9.70;88.90
55711;DHT22;41612;51.994;5.880;2023-03-14T02:50:15;9.60;89.00
55711;DHT22;41612;51.994;5.880;2023-03-14T02:52:43;9.60;89.00
55711;DHT22;41612;51.994;5.880;2023-03-14T02:55:09;9.60;88.90
55711;DHT22;41612;51.994;5.880;2023-03-14T02:57:38;9.60;89.00
55711;DHT22;41612;51.994;5.880;2023-03-14T03:00:04;9.70;89.00
55711;DHT22;41612;51.994;5.880;2023-03-14T03:02:34;9.70;89.00
55711;DHT22;41612;51.994;5.880;2023-03-14T03:04:59;9.70;88.90
55711;DHT22;41612;51.994;5.880;2023-03-14T03:07:25;9.60;88.70
55711;DHT22;41612;51.994;5.880;2023-03-14T03:09:53;9.70;88.60
55711;DHT22;41612;51.994;5.880;2023-03-14T03:12:18;9.70;88.50
55711;DHT22;41612;51.994;5.880;2023-03-14T03:14:44;9.60;88.40
55711;DHT22;41612;51.994;5.880;2023-03-14T03:17:10;9.60;88.30
55711;DHT22;41612;51.994;5.880;2023-03-14T03:19:37;9.60;88.20
55711;DHT22;41612;51.994;5.880;2023-03-14T03:22:03;9.60;88.10
55711;DHT22;41612;51.994;5.880;2023-03-14T03:24:28;9.50;88.00
55711;DHT22;41612;51.994;5.880;2023-03-14T03:26:54;9.50;88.00
55711;DHT22;41612;51.994;5.880;2023-03-14T03:29:20;9.50;88.00
55711;DHT22;41612;51.994;5.880;2023-03-14T03:31:46;9.60;88.00
55711;DHT22;41612;51.994;5.880;2023-03-14T03:34:13;9.60;87.90
55711;DHT22;41612;51.994;5.880;2023-03-14T03:36:40;9.60;87.90
55711;DHT22;41612;51.994;5.880;2023-03-14T03:39:06;9.60;87.70
55711;DHT22;41612;51.994;5.880;2023-03-14T03:41:32;9.60;87.50
55711;DHT22;41612;51.994;5.880;2023-03-14T03:43:58;9.60;87.30
55711;DHT22;41612;51.994;5.880;2023-03-14T03:46:25;9.60;87.40
55711;DHT22;41612;51.994;5.880;2023-03-14T03:48:55;9.60;87.30
55711;DHT22;41612;51.994;5.880;2023-03-14T03:51:21;9.60;87.30
55711;DHT22;41612;51.994;5.880;2023-03-14T03:53:47;9.70;87.10
55711;DHT22;41612;51.994;5.880;2023-03-14T03:56:20;9.70;86.90
55711;DHT22;41612;51.994;5.880;2023-03-14T03:58:46;9.70;86.90
55711;DHT22;41612;51.994;5.880;2023-03-14T04:01:12;9.70;86.70
55711;DHT22;41612;51.994;5.880;2023-03-14T04:03:38;9.70;86.60
55711;DHT22;41612;51.994;5.880;2023-03-14T04:06:07;9.70;86.60
55711;DHT22;41612;51.994;5.880;2023-03-14T04:08:36;9.70;86.30
55711;DHT22;41612;51.994;5.880;2023-03-14T04:11:02;9.70;86.10
55711;DHT22;41612;51.994;5.880;2023-03-14T04:13:47;9.80;86.10
55711;DHT22;41612;51.994;5.880;2023-03-14T04:16:19;9.80;85.70
55711;DHT22;41612;51.994;5.880;2023-03-14T04:18:45;9.80;85.50
55711;DHT22;41612;51.994;5.880;2023-03-14T04:21:11;9.80;85.50
55711;DHT22;41612;51.994;5.880;2023-03-14T04:23:47;9.80;85.20
55711;DHT22;41612;51.994;5.880;2023-03-14T04:26:14;9.80;85.30
55711;DHT22;41612;51.994;5.880;2023-03-14T04:28:40;9.80;85.00
55711;DHT22;41612;51.994;5.880;2023-03-14T04:31:12;9.90;84.60
55711;DHT22;41612;51.994;5.880;2023-03-14T04:33:39;9.90;84.70
55711;DHT22;41612;51.994;5.880;2023-03-14T04:36:06;9.90;84.10
55711;DHT22;41612;51.994;5.880;2023-03-14T04:38:33;9.90;84.10
55711;DHT22;41612;51.994;5.880;2023-03-14T04:40:59;9.90;84.20
55711;DHT22;41612;51.994;5.880;2023-03-14T04:43:30;9.90;84.10
55711;DHT22;41612;51.994;5.880;2023-03-14T04:46:02;9.90;84.30
55711;DHT22;41612;51.994;5.880;2023-03-14T04:48:28;10.00;83.90
55711;DHT22;41612;51.994;5.880;2023-03-14T04:50:55;10.10;84.10
55711;DHT22;41612;51.994;5.880;2023-03-14T04:53:21;10.10;83.70
55711;DHT22;41612;51.994;5.880;2023-03-14T04:55:54;10.00;83.30
55711;DHT22;41612;51.994;5.880;2023-03-14T04:58:22;10.10;83.50
55711;DHT22;41612;51.994;5.880;2023-03-14T05:00:49;10.20;83.50
55711;DHT22;41612;51.994;5.880;2023-03-14T05:03:38;10.20;83.10
55711;DHT22;41612;51.994;5.880;2023-03-14T05:06:12;10.20;83.40
55711;DHT22;41612;51.994;5.880;2023-03-14T05:08:44;10.20;83.30
55711;DHT22;41612;51.994;5.880;2023-03-14T05:11:39;10.20;83.30
55711;DHT22;41612;51.994;5.880;2023-03-14T05:14:07;10.20;83.50
55711;DHT22;41612;51.994;5.880;2023-03-14T05:16:53;10.20;83.20
55711;DHT22;41612;51.994;5.880;2023-03-14T05:19:41;10.20;83.70
55711;DHT22;41612;51.994;5.880;2023-03-14T05:22:31;10.20;83.30
55711;DHT22;41612;51.994;5.880;2023-03-14T05:24:57;10.20;82.90
55711;DHT22;41612;51.994;5.880;2023-03-14T05:27:56;10.20;82.60
55711;DHT22;41612;51.994;5.880;2023-03-14T05:30:38;10.20;82.80
55711;DHT22;41612;51.994;5.880;2023-03-14T05:33:30;10.20;83.10
55711;DHT22;41612;51.994;5.880;2023-03-14T05:36:11;10.20;82.80
55711;DHT22;41612;51.994;5.880;2023-03-14T05:38:56;10.20;82.80
55711;DHT22;41612;51.994;5.880;2023-03-14T05:41:40;10.20;83.00
55711;DHT22;41612;51.994;5.880;2023-03-14T05:44:24;10.20;83.30
55711;DHT22;41612;51.994;5.880;2023-03-14T05:47:10;10.20;83.20
55711;DHT22;41612;51.994;5.880;2023-03-14T05:49:57;10.20;83.60
55711;DHT22;41612;51.994;5.880;2023-03-14T05:52:41;10.10;83.70
55711;DHT22;41612;51.994;5.880;2023-03-14T05:55:36;10.10;83.80
55711;DHT22;41612;51.994;5.880;2023-03-14T05:58:22;10.00;84.10
55711;DHT22;41612;51.994;5.880;2023-03-14T06:01:08;10.00;84.60
55711;DHT22;41612;51.994;5.880;2023-03-14T06:03:45;9.90;85.00
55711;DHT22;41612;51.994;5.880;2023-03-14T06:06:11;9.80;85.30
55711;DHT22;41612;51.994;5.880;2023-03-14T06:08:36;9.80;85.60
55711;DHT22;41612;51.994;5.880;2023-03-14T06:11:03;9.70;85.70
55711;DHT22;41612;51.994;5.880;2023-03-14T06:13:30;9.70;85.80
55711;DHT22;41612;51.994;5.880;2023-03-14T06:15:56;9.80;85.90
55711;DHT22;41612;51.994;5.880;2023-03-14T06:18:21;9.70;86.00
55711;DHT22;41612;51.994;5.880;2023-03-14T06:20:47;9.70;86.20
55711;DHT22;41612;51.994;5.880;2023-03-14T06:23:21;9.70;86.10
55711;DHT22;41612;51.994;5.880;2023-03-14T06:25:47;9.70;86.30
55711;DHT22;41612;51.994;5.880;2023-03-14T06:28:13;9.70;86.30
55711;DHT22;41612;51.994;5.880;2023-03-14T06:30:38;9.70;86.40
55711;DHT22;41612;51.994;5.880;2023-03-14T06:33:07;9.70;86.60
55711;DHT22;41612;51.994;5.880;2023-03-14T06:35:33;9.70;86.50
55711;DHT22;41612;51.994;5.880;2023-03-14T06:37:59;9.70;86.60
55711;DHT22;41612;51.994;5.880;2023-03-14T06:40:26;9.70;87.10
55711;DHT22;41612;51.994;5.880;2023-03-14T06:42:59;9.70;87.20
55711;DHT22;41612;51.994;5.880;2023-03-14T06:45:27;9.70;87.30
55711;DHT22;41612;51.994;5.880;2023-03-14T06:47:54;9.70;87.40
55711;DHT22;41612;51.994;5.880;2023-03-14T06:50:24;9.80;87.30
55711;DHT22;41612;51.994;5.880;2023-03-14T06:52:50;9.80;87.20
55711;DHT22;41612;51.994;5.880;2023-03-14T06:55:20;9.80;87.30
55711;DHT22;41612;51.994;5.880;2023-03-14T06:57:46;9.80;87.20
55711;DHT22;41612;51.994;5.880;2023-03-14T07:00:13;9.80;87.00
55711;DHT22;41612;51.994;5.880;2023-03-14T07:02:39;9.80;87.20
55711;DHT22;41612;51.994;5.880;2023-03-14T07:05:07;9.80;87.30
55711;DHT22;41612;51.994;5.880;2023-03-14T07:07:33;9.80;87.30
55711;DHT22;41612;51.994;5.880;2023-03-14T07:09:59;9.80;87.60
55711;DHT22;41612;51.994;5.880;2023-03-14T07:12:26;9.80;87.60
55711;DHT22;41612;51.994;5.880;2023-03-14T07:14:52;9.90;87.40
55711;DHT22;41612;51.994;5.880;2023-03-14T07:17:18;9.90;87.60
55711;DHT22;41612;51.994;5.880;2023-03-14T07:19:44;9.80;87.80
55711;DHT22;41612;51.994;5.880;2023-03-14T07:22:09;9.90;87.60
55711;DHT22;41612;51.994;5.880;2023-03-14T07:24:35;9.80;87.70
55711;DHT22;41612;51.994;5.880;2023-03-14T07:27:01;9.80;87.80
55711;DHT22;41612;51.994;5.880;2023-03-14T07:29:26;9.90;87.00
55711;DHT22;41612;51.994;5.880;2023-03-14T07:31:52;9.90;86.20
55711;DHT22;41612;51.994;5.880;2023-03-14T07:34:19;9.80;85.70
55711;DHT22;41612;51.994;5.880;2023-03-14T07:36:45;9.80;85.90
55711;DHT22;41612;51.994;5.880;2023-03-14T07:39:11;9.80;85.70
55711;DHT22;41612;51.994;5.880;2023-03-14T07:41:36;9.80;85.60
55711;DHT22;41612;51.994;5.880;2023-03-14T07:44:40;9.80;85.40
55711;DHT22;41612;51.994;5.880;2023-03-14T07:47:06;9.70;85.60
55711;DHT22;41612;51.994;5.880;2023-03-14T07:49:32;9.60;85.60
55711;DHT22;41612;51.994;5.880;2023-03-14T07:51:57;9.60;85.80
55711;DHT22;41612;51.994;5.880;2023-03-14T07:54:24;9.50;86.00
55711;DHT22;41612;51.994;5.880;2023-03-14T07:56:50;9.40;86.20
55711;DHT22;41612;51.994;5.880;2023-03-14T07:59:17;9.40;86.30
55711;DHT22;41612;51.994;5.880;2023-03-14T08:01:43;9.30;86.60
55711;DHT22;41612;51.994;5.880;2023-03-14T08:04:09;9.20;86.60
55711;DHT22;41612;51.994;5.880;2023-03-14T08:06:36;9.10;86.60
55711;DHT22;41612;51.994;5.880;2023-03-14T08:09:02;9.10;87.20
55711;DHT22;41612;51.994;5.880;2023-03-14T08:11:28;9.10;87.40
55711;DHT22;41612;51.994;5.880;2023-03-14T08:13:54;9.10;87.50
55711;DHT22;41612;51.994;5.880;2023-03-14T08:16:20;9.10;87.50
55711;DHT22;41612;51.994;5.880;2023-03-14T08:18:46;9.10;87.40
55711;DHT22;41612;51.994;5.880;2023-03-14T08:21:11;9.10;87.20
55711;DHT22;41612;51.994;5.880;2023-03-14T08:23:37;9.10;87.40
55711;DHT22;41612;51.994;5.880;2023-03-14T08:26:03;9.10;87.40
55711;DHT22;41612;51.994;5.880;2023-03-14T08:28:28;9.20;87.30
55711;DHT22;41612;51.994;5.880;2023-03-14T08:31:00;9.20;87.10
55711;DHT22;41612;51.994;5.880;2023-03-14T08:33:27;9.20;87.00
55711;DHT22;41612;51.994;5.880;2023-03-14T08:35:55;9.20;86.80
55711;DHT22;41612;51.994;5.880;2023-03-14T08:38:20;9.20;86.60
55711;DHT22;41612;51.994;5.880;2023-03-14T08:40:46;9.20;86.80
55711;DHT22;41612;51.994;5.880;2023-03-14T08:43:12;9.20;86.70
55711;DHT22;41612;51.994;5.880;2023-03-14T08:45:37;9.10;87.00
55711;DHT22;41612;51.994;5.880;2023-03-14T08:48:03;9.00;87.10
55711;DHT22;41612;51.994;5.880;2023-03-14T08:50:29;9.00;87.20
55711;DHT22;41612;51.994;5.880;2023-03-14T08:52:55;9.00;87.20
55711;DHT22;41612;51.994;5.880;2023-03-14T08:55:23;9.00;87.10
55711;DHT22;41612;51.994;5.880;2023-03-14T08:57:48;8.90;87.30
55711;DHT22;41612;51.994;5.880;2023-03-14T09:00:14;8.80;87.50
55711;DHT22;41612;51.994;5.880;2023-03-14T09:02:41;8.90;87.40
55711;DHT22;41612;51.994;5.880;2023-03-14T09:05:08;8.80;87.20
55711;DHT22;41612;51.994;5.880;2023-03-14T09:07:34;8.80;87.20
55711;DHT22;41612;51.994;5.880;2023-03-14T09:10:00;8.80;87.60
55711;DHT22;41612;51.994;5.880;2023-03-14T09:12:25;8.90;87.30
55711;DHT22;41612;51.994;5.880;2023-03-14T09:14:51;9.00;86.90
55711;DHT22;41612;51.994;5.880;2023-03-14T09:17:16;9.00;86.10
55711;DHT22;41612;51.994;5.880;2023-03-14T09:19:42;9.00;85.80
55711;DHT22;41612;51.994;5.880;2023-03-14T09:22:08;9.00;85.60
55711;DHT22;41612;51.994;5.880;2023-03-14T09:24:33;8.90;85.90
55711;DHT22;41612;51.994;5.880;2023-03-14T09:26:59;8.90;86.10
55711;DHT22;41612;51.994;5.880;2023-03-14T09:29:25;9.00;86.00
55711;DHT22;41612;51.994;5.880;2023-03-14T09:31:50;9.10;85.70
55711;DHT22;41612;51.994;5.880;2023-03-14T09:34:16;9.30;84.60
55711;DHT22;41612;51.994;5.880;2023-03-14T09:36:42;9.50;83.90
55711;DHT22;41612;51.994;5.880;2023-03-14T09:39:10;9.90;82.60
55711;DHT22;41612;51.994;5.880;2023-03-14T09:41:39;10.00;81.70
55711;DHT22;41612;51.994;5.880;2023-03-14T09:44:21;10.00;81.40
55711;DHT22;41612;51.994;5.880;2023-03-14T09:46:51;10.00;80.40
55711;DHT22;41612;51.994;5.880;2023-03-14T09:51:52;9.80;80.80
55711;DHT22;41612;51.994;5.880;2023-03-14T09:57:17;9.60;81.70
55711;DHT22;41612;51.994;5.880;2023-03-14T09:59:45;9.70;81.80
55711;DHT22;41612;51.994;5.880;2023-03-14T10:02:20;9.60;81.60
55711;DHT22;41612;51.994;5.880;2023-03-14T10:04:47;9.70;81.70
55711;DHT22;41612;51.994;5.880;2023-03-14T10:07:19;9.80;80.90
55711;DHT22;41612;51.994;5.880;2023-03-14T10:09:50;9.80;80.90
55711;DHT22;41612;51.994;5.880;2023-03-14T10:12:17;9.80;80.50
55711;DHT22;41612;51.994;5.880;2023-03-14T10:14:50;10.00;80.20
55711;DHT22;41612;51.994;5.880;2023-03-14T10:17:18;10.20;79.40
55711;DHT22;41612;51.994;5.880;2023-03-14T10:19:52;10.30;78.80
55711;DHT22;41612;51.994;5.880;2023-03-14T10:22:19;10.30;78.60
55711;DHT22;41612;51.994;5.880;2023-03-14T10:24:51;10.20;78.90
55711;DHT22;41612;51.994;5.880;2023-03-14T10:27:21;10.20;78.50
55711;DHT22;41612;51.994;5.880;2023-03-14T10:30:00;10.20;79.20
55711;DHT22;41612;51.994;5.880;2023-03-14T10:32:36;10.20;78.70
55711;DHT22;41612;51.994;5.880;2023-03-14T10:37:52;10.20;78.80
55711;DHT22;41612;51.994;5.880;2023-03-14T10:40:24;10.20;78.90
55711;DHT22;41612;51.994;5.880;2023-03-14T10:42:51;10.30;78.50
55711;DHT22;41612;51.994;5.880;2023-03-14T10:45:41;10.20;78.40
55711;DHT22;41612;51.994;5.880;2023-03-14T10:48:33;10.20;78.50
55711;DHT22;41612;51.994;5.880;2023-03-14T10:51:06;10.20;78.40
55711;DHT22;41612;51.994;5.880;2023-03-14T10:53:38;10.20;78.40
55711;DHT22;41612;51.994;5.880;2023-03-14T10:56:05;10.30;77.90
55711;DHT22;41612;51.994;5.880;2023-03-14T10:58:37;10.30;77.40
55711;DHT22;41612;51.994;5.880;2023-03-14T11:01:40;10.20;77.60
55711;DHT22;41612;51.994;5.880;2023-03-14T11:15:34;9.60;80.10
55711;DHT22;41612;51.994;5.880;2023-03-14T11:21:33;10.10;78.90
55711;DHT22;41612;51.994;5.880;2023-03-14T11:33:15;10.40;76.70
55711;DHT22;41612;51.994;5.880;2023-03-14T11:38:30;10.30;75.80
55711;DHT22;41612;51.994;5.880;2023-03-14T11:40:59;10.60;75.40
55711;DHT22;41612;51.994;5.880;2023-03-14T11:43:32;10.70;75.20
55711;DHT22;41612;51.994;5.880;2023-03-14T11:46:19;10.70;74.90
55711;DHT22;41612;51.994;5.880;2023-03-14T11:51:35;10.70;75.20
55711;DHT22;41612;51.994;5.880;2023-03-14T11:54:14;11.00;74.20
55711;DHT22;41612;51.994;5.880;2023-03-14T11:56:52;11.40;73.20
55711;DHT22;41612;51.994;5.880;2023-03-14T12:02:56;13.20;67.20
55711;DHT22;41612;51.994;5.880;2023-03-14T12:14:29;16.40;56.00
55711;DHT22;41612;51.994;5.880;2023-03-14T12:16:58;16.50;54.50
55711;DHT22;41612;51.994;5.880;2023-03-14T12:19:35;17.20;51.90
55711;DHT22;41612;51.994;5.880;2023-03-14T12:22:27;17.40;51.30
55711;DHT22;41612;51.994;5.880;2023-03-14T12:25:17;17.70;50.00
55711;DHT22;41612;51.994;5.880;2023-03-14T12:27:45;17.80;49.20
55711;DHT22;41612;51.994;5.880;2023-03-14T12:35:51;19.30;43.50
55711;DHT22;41612;51.994;5.880;2023-03-14T12:41:03;19.20;42.50
55711;DHT22;41612;51.994;5.880;2023-03-14T12:43:32;19.50;43.90
55711;DHT22;41612;51.994;5.880;2023-03-14T12:48:48;20.20;41.00
55711;DHT22;41612;51.994;5.880;2023-03-14T12:51:16;20.70;41.70
55711;DHT22;41612;51.994;5.880;2023-03-14T12:59:35;20.80;39.10
55711;DHT22;41612;51.994;5.880;2023-03-14T13:04:47;21.50;38.90
55711;DHT22;41612;51.994;5.880;2023-03-14T13:10:28;22.40;37.30
55711;DHT22;41612;51.994;5.880;2023-03-14T13:13:23;23.20;35.50
55711;DHT22;41612;51.994;5.880;2023-03-14T13:15:57;23.50;33.10
55711;DHT22;41612;51.994;5.880;2023-03-14T13:18:41;23.30;33.20
55711;DHT22;41612;51.994;5.880;2023-03-14T13:21:19;23.60;32.50
55711;DHT22;41612;51.994;5.880;2023-03-14T13:24:07;24.00;33.20
55711;DHT22;41612;51.994;5.880;2023-03-14T13:26:43;24.80;32.40
55711;DHT22;41612;51.994;5.880;2023-03-14T13:29:30;25.00;32.70
55711;DHT22;41612;51.994;5.880;2023-03-14T13:31:59;25.20;32.00
55711;DHT22;41612;51.994;5.880;2023-03-14T13:34:28;24.30;33.40
55711;DHT22;41612;51.994;5.880;2023-03-14T13:36:54;22.70;35.60
55711;DHT22;41612;51.994;5.880;2023-03-14T13:39:25;21.70;37.50
55711;DHT22;41612;51.994;5.880;2023-03-14T13:42:00;21.70;37.90
55711;DHT22;41612;51.994;5.880;2023-03-14T13:44:39;22.00;33.00
55711;DHT22;41612;51.994;5.880;2023-03-14T13:47:14;23.20;35.90
55711;DHT22;41612;51.994;5.880;2023-03-14T13:49:40;23.70;33.70
55711;DHT22;41612;51.994;5.880;2023-03-14T13:52:30;23.50;33.90
55711;DHT22;41612;51.994;5.880;2023-03-14T13:54:58;22.90;32.80
55711;DHT22;41612;51.994;5.880;2023-03-14T13:57:24;21.30;33.50
55711;DHT22;41612;51.994;5.880;2023-03-14T14:00:07;20.10;38.30
55711;DHT22;41612;51.994;5.880;2023-03-14T14:02:37;18.40;42.20
55711;DHT22;41612;51.994;5.880;2023-03-14T14:05:04;17.00;45.90
55711;DHT22;41612;51.994;5.880;2023-03-14T14:07:30;16.00;47.90
55711;DHT22;41612;51.994;5.880;2023-03-14T14:09:57;17.40;46.30
55711;DHT22;41612;51.994;5.880;2023-03-14T14:15:15;21.10;37.90
55711;DHT22;41612;51.994;5.880;2023-03-14T14:17:45;22.80;35.10
55711;DHT22;41612;51.994;5.880;2023-03-14T14:20:34;23.70;33.20
55711;DHT22;41612;51.994;5.880;2023-03-14T14:23:05;24.40;32.90
55711;DHT22;41612;51.994;5.880;2023-03-14T14:25:32;24.90;30.10
55711;DHT22;41612;51.994;5.880;2023-03-14T14:27:58;24.10;29.70
55711;DHT22;41612;51.994;5.880;2023-03-14T14:30:31;23.20;33.90
55711;DHT22;41612;51.994;5.880;2023-03-14T14:33:18;23.10;34.70
55711;DHT22;41612;51.994;5.880;2023-03-14T14:36:14;24.00;33.40
55711;DHT22;41612;51.994;5.880;2023-03-14T14:38:41;24.80;29.90
55711;DHT22;41612;51.994;5.880;2023-03-14T14:41:11;24.70;30.80
55711;DHT22;41612;51.994;5.880;2023-03-14T14:43:39;24.80;30.70
55711;DHT22;41612;51.994;5.880;2023-03-14T14:46:07;24.80;31.30
55711;DHT22;41612;51.994;5.880;2023-03-14T14:48:36;24.80;31.40
55711;DHT22;41612;51.994;5.880;2023-03-14T14:51:04;23.10;33.80
55711;DHT22;41612;51.994;5.880;2023-03-14T14:53:40;20.90;36.10
55711;DHT22;41612;51.994;5.880;2023-03-14T14:58:45;17.80;44.00
55711;DHT22;41612;51.994;5.880;2023-03-14T15:01:15;16.70;46.10
55711;DHT22;41612;51.994;5.880;2023-03-14T15:03:44;15.70;48.20
55711;DHT22;41612;51.994;5.880;2023-03-14T15:06:14;15.00;51.70
55711;DHT22;41612;51.994;5.880;2023-03-14T15:08:43;14.70;52.70
55711;DHT22;41612;51.994;5.880;2023-03-14T15:11:21;14.60;53.70
55711;DHT22;41612;51.994;5.880;2023-03-14T15:13:48;14.50;53.60
55711;DHT22;41612;51.994;5.880;2023-03-14T15:16:27;14.20;54.90
55711;DHT22;41612;51.994;5.880;2023-03-14T15:18:58;13.70;56.70
55711;DHT22;41612;51.994;5.880;2023-03-14T15:21:25;13.30;58.10
55711;DHT22;41612;51.994;5.880;2023-03-14T15:23:52;13.00;58.60
55711;DHT22;41612;51.994;5.880;2023-03-14T15:26:24;12.70;59.90
55711;DHT22;41612;51.994;5.880;2023-03-14T15:28:50;12.40;61.70
55711;DHT22;41612;51.994;5.880;2023-03-14T15:31:18;12.20;61.20
55711;DHT22;41612;51.994;5.880;2023-03-14T15:33:45;12.20;62.90
55711;DHT22;41612;51.994;5.880;2023-03-14T15:36:37;12.00;60.60
55711;DHT22;41612;51.994;5.880;2023-03-14T15:39:05;12.00;63.20
55711;DHT22;41612;51.994;5.880;2023-03-14T15:41:31;11.80;61.10
55711;DHT22;41612;51.994;5.880;2023-03-14T15:43:57;11.80;62.70
55711;DHT22;41612;51.994;5.880;2023-03-14T15:46:23;11.70;64.60
55711;DHT22;41612;51.994;5.880;2023-03-14T15:48:50;11.70;65.70
55711;DHT22;41612;51.994;5.880;2023-03-14T15:51:17;11.60;65.50
55711;DHT22;41612;51.994;5.880;2023-03-14T15:53:43;11.40;65.40
55711;DHT22;41612;51.994;5.880;2023-03-14T15:56:17;11.30;66.00
55711;DHT22;41612;51.994;5.880;2023-03-14T15:58:43;11.20;66.60
55711;DHT22;41612;51.994;5.880;2023-03-14T16:01:12;11.00;67.30
55711;DHT22;41612;51.994;5.880;2023-03-14T16:03:43;11.00;67.50
55711;DHT22;41612;51.994;5.880;2023-03-14T16:06:09;10.90;66.90
55711;DHT22;41612;51.994;5.880;2023-03-14T16:08:35;10.90;68.10
55711;DHT22;41612;51.994;5.880;2023-03-14T16:11:01;10.90;68.70
55711;DHT22;41612;51.994;5.880;2023-03-14T16:13:27;10.80;64.00
55711;DHT22;41612;51.994;5.880;2023-03-14T16:16:01;10.70;66.40
55711;DHT22;41612;51.994;5.880;2023-03-14T16:18:29;10.70;68.50
55711;DHT22;41612;51.994;5.880;2023-03-14T16:20:57;10.70;68.40
55711;DHT22;41612;51.994;5.880;2023-03-14T16:23:24;10.60;67.10
55711;DHT22;41612;51.994;5.880;2023-03-14T16:25:50;10.60;67.90
55711;DHT22;41612;51.994;5.880;2023-03-14T16:28:16;10.50;69.50
55711;DHT22;41612;51.994;5.880;2023-03-14T16:30:41;10.50;69.90
55711;DHT22;41612;51.994;5.880;2023-03-14T16:33:10;10.40;68.10
55711;DHT22;41612;51.994;5.880;2023-03-14T16:35:36;10.30;68.00
55711;DHT22;41612;51.994;5.880;2023-03-14T16:38:06;10.20;67.50
55711;DHT22;41612;51.994;5.880;2023-03-14T16:40:31;10.10;70.40
55711;DHT22;41612;51.994;5.880;2023-03-14T16:42:58;10.00;70.40
55711;DHT22;41612;51.994;5.880;2023-03-14T16:45:23;10.00;69.00
55711;DHT22;41612;51.994;5.880;2023-03-14T16:47:49;9.90;68.90
55711;DHT22;41612;51.994;5.880;2023-03-14T16:50:15;9.80;71.80
55711;DHT22;41612;51.994;5.880;2023-03-14T16:52:41;9.80;71.90
55711;DHT22;41612;51.994;5.880;2023-03-14T16:55:07;9.70;66.60
55711;DHT22;41612;51.994;5.880;2023-03-14T16:57:33;9.80;70.70
55711;DHT22;41612;51.994;5.880;2023-03-14T16:59:59;9.70;69.70
55711;DHT22;41612;51.994;5.880;2023-03-14T17:02:25;9.70;69.60
55711;DHT22;41612;51.994;5.880;2023-03-14T17:04:50;9.60;71.20
55711;DHT22;41612;51.994;5.880;2023-03-14T17:07:16;9.50;69.90
55711;DHT22;41612;51.994;5.880;2023-03-14T17:09:42;9.50;70.70
55711;DHT22;41612;51.994;5.880;2023-03-14T17:12:08;9.50;71.90
55711;DHT22;41612;51.994;5.880;2023-03-14T17:14:34;9.50;71.50
55711;DHT22;41612;51.994;5.880;2023-03-14T17:16:59;9.40;71.80
55711;DHT22;41612;51.994;5.880;2023-03-14T17:19:25;9.40;72.90
55711;DHT22;41612;51.994;5.880;2023-03-14T17:21:51;9.40;72.80
55711;DHT22;41612;51.994;5.880;2023-03-14T17:24:17;9.30;71.50
55711;DHT22;41612;51.994;5.880;2023-03-14T17:26:44;9.30;72.00